Time;durP1;ratioP1;P1;durP2;ratioP2;P2;SDS_P1;SDS_P2;PMS_P1;PMS_P2;Temp;Humidity;BMP_temperature;BMP_pressure;BME280_temperature;BME280_humidity;BME280_pressure;Samples;Min_cycle;Max_cycle;Signal;HPM_P1;HPM_P2
2022/05/15 00:02:08;;;;;;;;;;;14.10;68.50;;;;;;5017565;28;20048;-72
2022/05/15 00:04:35;;;;;;;118.43;107.07;;;14.00;67.20;;;;;;5017391;28;20028;-71
2022/05/15 00:07:04;;;;;;;119.97;108.82;;;14.00;68.50;;;;;;5016650;28;20108;-72
2022/05/15 00:09:31;;;;;;;120.30;108.90;;;13.90;68.60;;;;;;5009594;28;20058;-72
2022/05/15 00:11:58;;;;;;;130.07;109.53;;;13.90;68.60;;;;;;5008426;28;20048;-72
2022/05/15 00:14:25;;;;;;;127.97;110.22;;;13.80;69.00;;;;;;5015195;28;20420;-72
2022/05/15 00:16:52;;;;;;;123.93;110.25;;;13.80;69.50;;;;;;5016457;28;20075;-72
2022/05/15 00:19:19;;;;;;;120.75;108.55;;;13.70;70.20;;;;;;5034404;28;20061;-72
2022/05/15 00:21:46;;;;;;;120.90;109.10;;;13.70;69.90;;;;;;5034950;28;20069;-72
2022/05/15 00:24:14;;;;;;;120.90;108.82;;;13.60;70.00;;;;;;5034440;28;20546;-72
2022/05/15 00:26:41;;;;;;;120.97;108.88;;;13.60;70.00;;;;;;5016549;28;20046;-72
2022/05/15 00:29:09;;;;;;;123.30;111.55;;;13.50;70.30;;;;;;5033759;28;20058;-72
2022/05/15 00:31:36;;;;;;;121.72;109.88;;;13.40;70.90;;;;;;5034456;28;20108;-72
2022/05/15 00:34:03;;;;;;;120.78;108.95;;;13.30;71.70;;;;;;5034407;28;20065;-72
2022/05/15 00:36:30;;;;;;;120.32;108.10;;;13.20;72.20;;;;;;5016522;28;20073;-72
2022/05/15 00:38:58;;;;;;;120.30;108.03;;;13.20;72.20;;;;;;5032656;28;20050;-72
2022/05/15 00:41:27;;;;;;;120.78;108.90;;;13.10;72.10;;;;;;5016467;28;20072;-71
2022/05/15 00:43:56;;;;;;;122.30;110.30;;;13.10;72.50;;;;;;5016596;28;20050;-72
2022/05/15 00:46:28;;;;;;;119.72;107.97;;;13.00;73.10;;;;;;5033858;28;20054;-72
2022/05/15 00:48:57;;;;;;;118.40;106.80;;;13.00;73.90;;;;;;5033817;28;20153;-72
2022/05/15 00:51:28;;;;;;;118.03;106.95;;;13.00;74.20;;;;;;5016500;28;20069;-72
2022/05/15 00:53:58;;;;;;;118.60;107.38;;;12.90;74.30;;;;;;5016041;28;20050;-72
2022/05/15 00:56:29;;;;;;;117.30;106.05;;;12.90;74.60;;;;;;5016292;28;20050;-72
2022/05/15 00:59:01;;;;;;;117.90;106.57;;;12.80;74.70;;;;;;5015870;28;20050;-71
2022/05/15 01:01:28;;;;;;;118.80;107.38;;;12.80;75.00;;;;;;5016433;28;20061;-72
2022/05/15 01:03:55;;;;;;;118.78;107.28;;;12.70;75.10;;;;;;4999819;28;20085;-72
2022/05/15 01:06:22;;;;;;;120.15;108.03;;;12.70;75.50;;;;;;5016490;28;20583;-71
2022/05/15 01:08:50;;;;;;;118.07;106.32;;;12.70;76.10;;;;;;5015969;28;20069;-72
2022/05/15 01:11:19;;;;;;;124.22;111.15;;;12.70;76.50;;;;;;4999909;28;20152;-71
2022/05/15 01:13:51;;;;;;;120.72;108.30;;;12.60;77.00;;;;;;5015797;28;20516;-72
2022/05/15 01:16:22;;;;;;;120.78;108.47;;;12.60;77.40;;;;;;5016068;28;20129;-72
2022/05/15 01:18:50;;;;;;;120.03;107.72;;;12.60;78.00;;;;;;5032995;28;20053;-72
2022/05/15 01:21:26;;;;;;;121.75;109.43;;;12.50;78.20;;;;;;5015719;28;20265;-72
2022/05/15 01:23:55;;;;;;;121.22;108.50;;;12.50;78.70;;;;;;5015708;28;20561;-71
2022/05/15 01:26:24;;;;;;;119.75;107.72;;;12.40;78.80;;;;;;5015905;28;20128;-72
2022/05/15 01:28:52;;;;;;;120.10;108.15;;;12.30;79.20;;;;;;5015268;28;20112;-71
2022/05/15 01:31:19;;;;;;;119.20;107.47;;;12.30;79.80;;;;;;5032183;28;20144;-72
2022/05/15 01:33:48;;;;;;;119.05;107.07;;;12.30;79.90;;;;;;5015962;28;20510;-72
2022/05/15 01:36:18;;;;;;;118.75;106.55;;;12.30;79.90;;;;;;5032074;28;20495;-71
2022/05/15 01:38:47;;;;;;;119.63;107.50;;;12.30;79.90;;;;;;4998854;28;20108;-72
2022/05/15 01:41:14;;;;;;;118.15;106.60;;;12.30;80.10;;;;;;5032944;28;20064;-72
2022/05/15 01:43:43;;;;;;;118.53;106.65;;;12.30;80.00;;;;;;5015755;28;20054;-72
2022/05/15 01:46:12;;;;;;;119.53;107.57;;;12.30;80.10;;;;;;4999041;28;20046;-71
2022/05/15 01:48:39;;;;;;;117.65;106.00;;;12.30;80.30;;;;;;4998644;28;20053;-71
2022/05/15 01:51:07;;;;;;;118.30;106.32;;;12.30;80.00;;;;;;5015253;28;20078;-72
2022/05/15 01:53:34;;;;;;;118.22;106.72;;;12.30;79.50;;;;;;5015308;28;20058;-72
2022/05/15 01:56:03;;;;;;;119.15;107.53;;;12.20;79.70;;;;;;5015227;28;20046;-71
2022/05/15 01:58:31;;;;;;;119.15;107.28;;;12.20;80.40;;;;;;5014819;28;20077;-71
2022/05/15 02:00:58;;;;;;;117.78;106.30;;;12.10;80.80;;;;;;5031965;28;20046;-71
2022/05/15 02:03:25;;;;;;;117.03;105.63;;;12.10;81.00;;;;;;5015417;28;20042;-72
2022/05/15 02:05:52;;;;;;;116.47;105.35;;;12.10;81.00;;;;;;5015388;28;20128;-72
2022/05/15 02:08:20;;;;;;;116.90;105.55;;;12.10;80.80;;;;;;5014898;28;20042;-72
2022/05/15 02:10:47;;;;;;;118.32;106.93;;;12.10;80.50;;;;;;5015255;28;20053;-72
2022/05/15 02:13:16;;;;;;;119.70;107.88;;;12.10;80.30;;;;;;5014980;28;20053;-72
2022/05/15 02:15:43;;;;;;;118.38;106.53;;;12.10;80.30;;;;;;5032262;28;20058;-72
2022/05/15 02:18:10;;;;;;;116.78;105.30;;;12.10;80.20;;;;;;5014695;28;20052;-72
2022/05/15 02:20:37;;;;;;;116.63;105.40;;;12.10;80.20;;;;;;5015145;28;20057;-72
2022/05/15 02:23:04;;;;;;;117.55;105.97;;;12.10;80.50;;;;;;5015220;28;20101;-72
2022/05/15 02:25:32;;;;;;;118.45;106.93;;;12.10;80.80;;;;;;5015248;28;20124;-72
2022/05/15 02:27:59;;;;;;;116.25;105.15;;;12.10;81.10;;;;;;5015040;28;20050;-72
2022/05/15 02:30:29;;;;;;;118.60;107.20;;;12.10;80.40;;;;;;4998299;28;20046;-71
2022/05/15 02:32:56;;;;;;;116.47;105.15;;;12.10;80.40;;;;;;5015422;28;20060;-71
2022/05/15 02:35:23;;;;;;;116.85;105.55;;;12.00;80.40;;;;;;5031460;28;20050;-72
2022/05/15 02:37:50;;;;;;;116.90;105.90;;;12.00;80.80;;;;;;5032642;28;20100;-71
2022/05/15 02:40:19;;;;;;;113.70;102.75;;;12.00;81.30;;;;;;5015801;28;20507;-71
2022/05/15 02:42:46;;;;;;;117.60;106.20;;;11.90;81.60;;;;;;5063169;23;20056;-72
2022/05/15 02:45:14;;;;;;;117.05;105.78;;;11.90;81.10;;;;;;4998277;28;20050;-71
2022/05/15 02:47:42;;;;;;;115.03;103.70;;;11.90;81.30;;;;;;4998345;28;20060;-71
2022/05/15 02:52:57;;;;;;;116.72;105.20;;;11.70;81.80;;;;;;4998032;28;20515;-71
2022/05/15 02:55:26;;;;;;;117.00;105.65;;;11.70;82.10;;;;;;4997997;28;20050;-72
2022/05/15 02:57:54;;;;;;;116.45;105.22;;;11.70;82.80;;;;;;5031798;28;20056;-71
2022/05/15 03:00:23;;;;;;;117.40;106.00;;;11.60;83.40;;;;;;4997783;28;20050;-72
2022/05/15 03:02:52;;;;;;;116.43;105.10;;;11.60;83.90;;;;;;5014343;28;20049;-71
2022/05/15 03:05:20;;;;;;;117.43;105.72;;;11.50;84.10;;;;;;5014399;28;20088;-72
2022/05/15 03:07:48;;;;;;;118.80;106.97;;;11.50;84.30;;;;;;5013792;28;20052;-71
2022/05/15 03:10:18;;;;;;;117.60;106.20;;;11.50;84.50;;;;;;5013921;28;20050;-71
2022/05/15 03:12:45;;;;;;;117.03;105.68;;;11.50;85.10;;;;;;4997901;28;20058;-72
2022/05/15 03:15:14;;;;;;;117.90;106.68;;;11.50;85.20;;;;;;5031919;28;20057;-71
2022/05/15 03:17:42;;;;;;;116.82;105.50;;;11.40;85.20;;;;;;5013849;28;20046;-71
2022/05/15 03:20:13;;;;;;;117.05;105.85;;;11.40;85.20;;;;;;5014056;28;20050;-71
2022/05/15 03:22:40;;;;;;;116.25;104.93;;;11.30;85.60;;;;;;4998046;28;20076;-71
2022/05/15 03:25:08;;;;;;;117.25;106.03;;;11.30;85.70;;;;;;4997923;28;20054;-71
2022/05/15 03:27:36;;;;;;;117.30;105.82;;;11.20;86.10;;;;;;4999570;28;20244;-71
2022/05/15 03:30:04;;;;;;;118.55;106.78;;;11.20;86.50;;;;;;5016847;28;20050;-71
2022/05/15 03:32:31;;;;;;;117.88;106.22;;;11.20;86.80;;;;;;5017544;28;20052;-72
2022/05/15 03:34:58;;;;;;;118.00;106.10;;;11.10;87.10;;;;;;5035191;28;20073;-71
2022/05/15 03:37:26;;;;;;;119.88;107.80;;;11.10;87.30;;;;;;5000303;28;20057;-72
2022/05/15 03:39:54;;;;;;;118.38;106.35;;;11.00;88.10;;;;;;5000603;28;20100;-71
2022/05/15 03:42:22;;;;;;;120.10;107.80;;;11.00;88.30;;;;;;5017028;28;20081;-72
2022/05/15 03:44:49;;;;;;;120.65;108.75;;;10.90;88.40;;;;;;5000510;28;20054;-71
2022/05/15 03:47:16;;;;;;;117.80;106.15;;;10.80;88.40;;;;;;5016716;28;20480;-71
2022/05/15 03:49:43;;;;;;;119.53;106.93;;;10.80;88.90;;;;;;5000350;28;20491;-71
2022/05/15 03:52:11;;;;;;;117.10;105.60;;;10.70;89.30;;;;;;5000758;28;20480;-71
2022/05/15 03:54:41;;;;;;;118.93;106.68;;;10.80;89.80;;;;;;5016941;28;20046;-71
2022/05/15 03:57:08;;;;;;;117.88;106.03;;;10.80;90.00;;;;;;5016899;28;20042;-71
2022/05/15 03:59:37;;;;;;;116.95;105.20;;;10.80;89.90;;;;;;5017288;28;20080;-71
2022/05/15 04:02:05;;;;;;;119.03;107.05;;;10.80;89.80;;;;;;5017349;28;20056;-71
2022/05/15 04:04:33;;;;;;;116.68;104.90;;;10.80;89.70;;;;;;5017248;28;20527;-71
2022/05/15 04:10:05;;;;;;;118.70;106.65;;;10.80;90.00;;;;;;4956370;28;20626;-71
2022/05/15 04:12:32;;;;;;;118.95;106.75;;;10.70;90.10;;;;;;4974453;28;20533;-71
2022/05/15 04:14:59;;;;;;;119.13;106.88;;;10.70;90.20;;;;;;4941945;28;20051;-71
2022/05/15 04:17:26;;;;;;;118.30;106.45;;;10.70;90.40;;;;;;4957776;28;20047;-71
2022/05/15 04:19:53;;;;;;;119.85;107.22;;;10.70;90.60;;;;;;4942281;28;20036;-71
2022/05/15 04:22:20;;;;;;;120.10;107.78;;;10.60;90.70;;;;;;4942132;28;20051;-71
2022/05/15 04:24:47;;;;;;;118.38;106.93;;;10.60;90.80;;;;;;4942418;28;20561;-71
2022/05/15 04:27:16;;;;;;;121.35;109.03;;;10.60;91.00;;;;;;4957367;28;20047;-71
2022/05/15 04:29:43;;;;;;;120.80;108.05;;;10.60;91.10;;;;;;4957899;28;20121;-71
2022/05/15 04:32:09;;;;;;;120.18;108.05;;;10.60;91.20;;;;;;4958070;28;20143;-71
2022/05/15 04:34:36;;;;;;;120.78;108.55;;;10.60;91.30;;;;;;4941810;28;20179;-71
2022/05/15 04:37:04;;;;;;;123.15;110.35;;;10.50;91.40;;;;;;4957537;28;20051;-71
2022/05/15 04:39:33;;;;;;;118.18;106.05;;;10.60;91.60;;;;;;4957791;28;20158;-71
2022/05/15 04:42:00;;;;;;;121.55;108.93;;;10.60;91.70;;;;;;4957874;28;20056;-71
2022/05/15 04:44:29;;;;;;;120.55;107.88;;;10.60;91.80;;;;;;4957988;28;20057;-71
2022/05/15 04:46:56;;;;;;;121.40;109.03;;;10.60;92.00;;;;;;4957471;28;20047;-71
2022/05/15 04:49:23;;;;;;;121.45;108.80;;;10.60;92.00;;;;;;4957754;28;20051;-71
2022/05/15 04:51:50;;;;;;;119.85;107.95;;;10.70;92.10;;;;;;4975249;28;20154;-71
2022/05/15 04:54:17;;;;;;;120.97;108.50;;;10.70;92.20;;;;;;4957977;28;20054;-71
2022/05/15 04:56:43;;;;;;;120.82;108.20;;;10.70;92.40;;;;;;4973970;28;20452;-71
2022/05/15 04:59:10;;;;;;;120.10;107.57;;;10.80;92.50;;;;;;4957650;28;20462;-71
2022/05/15 05:01:39;;;;;;;124.00;111.05;;;10.80;92.70;;;;;;4957613;28;20055;-71
2022/05/15 05:04:05;;;;;;;123.00;110.00;;;10.80;92.80;;;;;;4974729;28;20079;-71
2022/05/15 05:06:33;;;;;;;123.80;111.32;;;10.80;92.90;;;;;;4957312;28;20156;-71
2022/05/15 05:09:00;;;;;;;123.95;111.25;;;10.80;93.00;;;;;;4974277;28;20078;-71
2022/05/15 05:11:27;;;;;;;121.80;109.30;;;10.90;93.10;;;;;;4973400;28;20058;-71
2022/05/15 05:13:54;;;;;;;122.40;109.95;;;10.90;93.20;;;;;;4957163;28;20051;-71
2022/05/15 05:16:20;;;;;;;123.20;110.60;;;10.90;93.40;;;;;;4957306;28;20143;-71
2022/05/15 05:18:49;;;;;;;122.72;110.07;;;10.90;93.50;;;;;;4974383;28;20062;-71
2022/05/15 05:21:16;;;;;;;123.95;110.78;;;11.00;93.70;;;;;;4957658;28;20078;-71
2022/05/15 05:23:43;;;;;;;125.70;112.60;;;11.00;93.90;;;;;;4957090;28;20050;-71
2022/05/15 05:26:10;;;;;;;125.13;112.10;;;11.00;93.90;;;;;;4974747;28;20075;-71
2022/05/15 05:28:37;;;;;;;123.72;110.97;;;11.00;94.10;;;;;;4956938;28;20055;-71
2022/05/15 05:31:05;;;;;;;124.10;111.07;;;11.10;94.10;;;;;;4974061;28;20437;-71
2022/05/15 05:33:32;;;;;;;124.05;111.20;;;11.10;94.10;;;;;;4956595;28;20044;-71
2022/05/15 05:39:00;;;;;;;120.32;107.75;;;11.20;94.50;;;;;;5010294;28;20133;-71
2022/05/15 05:41:27;;;;;;;120.43;107.35;;;11.20;94.50;;;;;;4994835;28;20082;-71
2022/05/15 05:43:54;;;;;;;121.72;109.15;;;11.20;94.70;;;;;;4994618;28;20514;-71
2022/05/15 05:46:21;;;;;;;120.95;108.10;;;11.30;94.50;;;;;;4994543;28;20054;-71
2022/05/15 05:48:49;;;;;;;122.80;109.72;;;11.30;94.60;;;;;;4994087;28;20469;-71
2022/05/15 05:51:16;;;;;;;121.13;108.60;;;11.40;94.80;;;;;;4993785;28;20143;-71
2022/05/15 05:53:43;;;;;;;117.47;105.50;;;11.40;94.80;;;;;;5006212;28;20061;-71
2022/05/15 05:56:12;;;;;;;119.78;107.55;;;11.50;94.80;;;;;;4991694;28;20043;-71
2022/05/15 05:58:39;;;;;;;119.30;106.97;;;11.50;94.80;;;;;;4997840;28;20061;-71
2022/05/15 06:01:05;;;;;;;120.53;108.05;;;11.60;94.90;;;;;;4990169;28;20133;-71
2022/05/15 06:06:17;;;;;;;117.28;104.93;;;11.70;94.90;;;;;;4998389;28;20081;-71
2022/05/15 06:08:44;;;;;;;119.97;107.50;;;11.70;95.00;;;;;;4986777;28;20133;-71
2022/05/15 06:11:13;;;;;;;119.53;107.07;;;11.80;95.10;;;;;;4994343;28;20063;-71
2022/05/15 06:13:40;;;;;;;119.57;107.13;;;11.90;95.20;;;;;;5007209;28;20054;-71
2022/05/15 06:16:08;;;;;;;118.40;106.10;;;11.90;95.20;;;;;;4985191;28;20135;-71
2022/05/15 06:18:35;;;;;;;120.82;108.85;;;12.00;95.10;;;;;;5007440;28;20078;-71
2022/05/15 06:21:02;;;;;;;119.80;107.35;;;12.10;95.10;;;;;;5010803;28;20050;-71
2022/05/15 06:23:29;;;;;;;121.55;108.78;;;12.10;95.30;;;;;;4983603;28;20047;-71
2022/05/15 06:25:56;;;;;;;121.35;108.53;;;12.20;95.10;;;;;;4980694;28;20545;-71
2022/05/15 06:28:24;;;;;;;119.85;107.47;;;12.30;95.00;;;;;;4984527;28;20213;-71
2022/05/15 06:30:51;;;;;;;119.60;107.25;;;12.40;95.00;;;;;;5001902;28;20046;-71
2022/05/15 06:33:18;;;;;;;118.82;106.13;;;12.40;94.90;;;;;;4985725;28;20054;-71
2022/05/15 06:35:45;;;;;;;118.47;106.68;;;12.50;94.90;;;;;;4984820;28;20420;-71
2022/05/15 06:38:12;;;;;;;119.88;107.60;;;12.60;94.70;;;;;;4991330;28;20051;-71
2022/05/15 06:40:39;;;;;;;121.82;109.05;;;12.70;94.70;;;;;;5011832;28;20068;-71
2022/05/15 06:43:06;;;;;;;119.07;107.10;;;12.80;94.70;;;;;;4994821;28;20082;-71
2022/05/15 06:45:35;;;;;;;120.93;108.55;;;12.80;94.60;;;;;;5011795;28;20050;-71
2022/05/15 06:48:02;;;;;;;119.43;107.05;;;12.90;94.60;;;;;;5011840;28;20884;-71
2022/05/15 06:50:29;;;;;;;119.45;107.72;;;12.90;94.50;;;;;;4995164;28;20133;-71
2022/05/15 06:52:56;;;;;;;117.72;105.85;;;13.00;94.50;;;;;;4993733;28;20129;-72
2022/05/15 06:55:24;;;;;;;118.75;106.63;;;13.10;94.40;;;;;;4991374;28;20050;-71
2022/05/15 06:57:51;;;;;;;118.90;106.75;;;13.20;94.40;;;;;;4993682;28;20072;-71
2022/05/15 07:00:20;;;;;;;118.45;106.88;;;13.20;94.30;;;;;;4992996;28;20097;-71
2022/05/15 07:02:50;;;;;;;119.95;108.03;;;13.30;94.30;;;;;;4995404;28;20082;-71
2022/05/15 07:05:22;;;;;;;118.07;106.63;;;13.40;94.20;;;;;;5012573;28;20140;-71
2022/05/15 07:07:51;;;;;;;122.60;110.15;;;13.40;94.20;;;;;;4995236;28;20513;-71
2022/05/15 07:10:19;;;;;;;118.10;106.63;;;13.50;94.10;;;;;;4988905;28;20061;-71
2022/05/15 07:12:45;;;;;;;120.80;108.57;;;13.60;94.00;;;;;;4989243;28;20061;-71
2022/05/15 07:15:12;;;;;;;119.47;107.57;;;13.70;93.90;;;;;;4980305;28;20054;-71
2022/05/15 07:17:40;;;;;;;119.65;107.50;;;13.70;94.00;;;;;;5011107;28;20058;-71
2022/05/15 07:20:09;;;;;;;118.43;106.35;;;13.80;94.00;;;;;;4988348;28;20061;-71
2022/05/15 07:22:38;;;;;;;118.47;106.88;;;13.90;93.80;;;;;;4988585;28;20043;-71
2022/05/15 07:25:06;;;;;;;116.95;105.40;;;14.00;93.70;;;;;;4987876;28;20476;-71
2022/05/15 07:27:33;;;;;;;118.03;106.07;;;14.00;93.60;;;;;;5003926;28;20137;-71
2022/05/15 07:29:59;;;;;;;118.05;106.35;;;14.10;93.40;;;;;;5002642;28;20062;-71
2022/05/15 07:32:27;;;;;;;115.55;104.38;;;14.20;93.40;;;;;;4986356;28;20051;-71
2022/05/15 07:34:54;;;;;;;117.13;105.70;;;14.30;93.40;;;;;;4987840;28;20137;-71
2022/05/15 07:37:22;;;;;;;118.43;106.68;;;14.30;93.20;;;;;;4987431;28;20133;-71
2022/05/15 07:39:49;;;;;;;123.00;110.82;;;14.40;93.20;;;;;;4986390;28;20049;-71
2022/05/15 07:42:16;;;;;;;119.85;107.95;;;14.50;93.00;;;;;;4989114;28;20814;-71
2022/05/15 07:44:43;;;;;;;121.63;109.60;;;14.60;92.80;;;;;;4997685;28;20082;-72
2022/05/15 07:47:10;;;;;;;122.13;110.13;;;14.70;92.60;;;;;;5014806;28;20064;-71
2022/05/15 07:49:37;;;;;;;119.95;108.22;;;14.80;92.50;;;;;;4997217;28;20064;-71
2022/05/15 07:52:05;;;;;;;120.90;109.38;;;14.80;92.30;;;;;;5005292;28;20106;-71
2022/05/15 07:54:34;;;;;;;120.53;108.80;;;14.90;92.20;;;;;;4999062;28;20145;-71
2022/05/15 07:57:01;;;;;;;119.32;107.80;;;15.00;92.10;;;;;;4979895;28;20141;-71
2022/05/15 07:59:29;;;;;;;120.93;108.68;;;15.10;91.90;;;;;;4978592;28;20095;-72
2022/05/15 08:01:58;;;;;;;121.25;109.40;;;15.10;91.90;;;;;;4983194;28;20042;-71
2022/05/15 08:04:25;;;;;;;119.97;108.22;;;15.30;91.60;;;;;;4981827;28;20503;-71
2022/05/15 08:09:37;;;;;;;122.20;110.65;;;15.40;91.20;;;;;;4978700;28;20109;-71
2022/05/15 08:12:05;;;;;;;122.95;111.18;;;15.50;91.00;;;;;;4996525;28;20043;-71
2022/05/15 08:14:32;;;;;;;123.70;111.97;;;15.50;90.90;;;;;;4995322;28;20062;-71
2022/05/15 08:17:00;;;;;;;125.28;113.22;;;15.60;90.60;;;;;;4980234;28;20081;-71
2022/05/15 08:24:58;;;;;;;122.95;111.25;;;15.90;90.00;;;;;;4981685;28;20043;-72
2022/05/15 08:27:25;;;;;;;123.55;112.07;;;16.00;89.30;;;;;;4983217;28;20051;-71
2022/05/15 08:29:52;;;;;;;124.00;112.03;;;16.10;88.60;;;;;;5006909;28;20054;-71
2022/05/15 08:32:19;;;;;;;124.55;112.72;;;16.20;87.90;;;;;;4995205;28;20564;-70
2022/05/15 08:34:46;;;;;;;124.38;112.78;;;16.30;87.40;;;;;;4979901;28;20061;-70
2022/05/15 08:37:13;;;;;;;124.53;112.93;;;16.40;86.80;;;;;;4982160;28;20427;-71
2022/05/15 08:39:40;;;;;;;122.70;111.35;;;16.50;86.10;;;;;;4988125;28;20062;-71
2022/05/15 08:42:19;;;;;;;124.85;113.45;;;16.60;85.50;;;;;;4980474;28;20074;-71
2022/05/15 08:44:47;;;;;;;123.90;112.45;;;16.70;85.00;;;;;;4981181;28;20059;-71
2022/05/15 08:47:22;;;;;;;132.23;115.75;;;16.80;84.50;;;;;;4995426;28;20712;-71
2022/05/15 08:49:53;;;;;;;125.35;113.47;;;16.80;83.90;;;;;;4980163;28;20078;-71
2022/05/15 08:52:27;;;;;;;125.13;113.10;;;16.90;83.70;;;;;;4981284;28;20129;-71
2022/05/15 08:54:58;;;;;;;124.35;113.13;;;17.00;83.20;;;;;;4980626;28;20141;-72
2022/05/15 08:57:41;;;;;;;126.03;114.32;;;17.10;82.80;;;;;;4997084;28;20046;-72
2022/05/15 09:00:12;;;;;;;129.45;116.18;;;17.10;82.20;;;;;;4982405;28;20076;-72
2022/05/15 09:02:41;;;;;;;125.13;113.68;;;17.20;82.10;;;;;;5010100;28;20064;-72
2022/05/15 09:05:09;;;;;;;125.35;114.03;;;17.40;82.10;;;;;;4976445;28;20055;-72
2022/05/15 09:07:51;;;;;;;126.35;114.65;;;17.40;81.40;;;;;;4995860;28;20420;-71
2022/05/15 09:10:26;;;;;;;124.50;112.63;;;17.50;81.10;;;;;;4981812;28;20105;-71
2022/05/15 09:13:00;;;;;;;;;;;17.60;79.80;;;;;;4999709;28;20062;-71
2022/05/15 09:15:31;;;;;;;128.38;116.38;;;17.70;79.20;;;;;;4985167;28;19933;-71
2022/05/15 09:18:01;;;;;;;126.38;114.72;;;17.70;79.70;;;;;;4983850;28;20513;-71
2022/05/15 09:20:49;;;;;;;126.32;114.70;;;17.80;79.90;;;;;;5000737;28;20059;-71
2022/05/15 09:23:26;;;;;;;126.78;115.03;;;17.90;78.90;;;;;;4978062;28;20795;-73
2022/05/15 09:25:57;;;;;;;126.63;115.00;;;18.00;78.40;;;;;;4998360;28;20062;-70
2022/05/15 09:28:27;;;;;;;128.32;116.32;;;18.10;78.60;;;;;;4992600;28;20081;-71
2022/05/15 09:30:56;;;;;;;128.60;117.18;;;18.20;78.70;;;;;;4975710;28;20054;-71
2022/05/15 09:33:27;;;;;;;128.60;117.13;;;18.20;78.00;;;;;;4994378;28;20086;-71
2022/05/15 09:36:16;;;;;;;129.13;117.32;;;18.30;78.30;;;;;;4997782;28;20057;-71
2022/05/15 09:38:43;;;;;;;128.93;117.47;;;18.40;77.70;;;;;;4996797;28;20549;-71
2022/05/15 09:43:59;;;;;;;131.13;119.72;;;18.60;75.80;;;;;;4985330;28;20089;-73
2022/05/15 09:46:29;;;;;;;130.10;118.88;;;18.70;76.40;;;;;;4990224;28;20193;-71
2022/05/15 09:49:01;;;;;;;132.32;120.32;;;18.80;76.30;;;;;;4985911;28;20141;-71
2022/05/15 09:51:39;;;;;;;129.07;117.95;;;18.90;75.10;;;;;;5008945;28;20101;-72
2022/05/15 09:54:08;;;;;;;131.52;120.25;;;19.00;75.40;;;;;;4995270;28;20071;-73
2022/05/15 09:56:36;;;;;;;130.68;119.60;;;19.00;74.60;;;;;;4993793;28;20057;-72
2022/05/15 09:59:12;;;;;;;129.32;118.22;;;19.10;74.40;;;;;;5003282;28;20049;-73
2022/05/15 10:01:42;;;;;;;129.48;118.63;;;19.20;74.10;;;;;;5003681;28;20137;-72
2022/05/15 10:04:21;;;;;;;131.65;120.68;;;19.30;73.60;;;;;;4998521;28;20042;-72
2022/05/15 10:06:53;;;;;;;131.18;119.85;;;19.40;73.20;;;;;;5003539;28;20065;-73
2022/05/15 10:09:26;;;;;;;129.70;118.43;;;19.40;72.50;;;;;;4992785;28;20125;-72
2022/05/15 10:11:59;;;;;;;133.40;121.85;;;19.50;72.60;;;;;;4991004;28;20930;-71
2022/05/15 10:14:32;;;;;;;137.80;126.18;;;19.60;72.50;;;;;;5007908;28;20065;-72
2022/05/15 10:17:00;;;;;;;133.25;122.10;;;19.60;72.00;;;;;;4988939;28;20134;-72
2022/05/15 10:19:33;;;;;;;134.70;122.88;;;19.80;70.80;;;;;;4993643;28;20042;-72
2022/05/15 10:22:11;;;;;;;132.32;120.88;;;19.90;70.80;;;;;;4992828;28;20046;-72
2022/05/15 10:24:43;;;;;;;131.02;120.18;;;20.00;71.20;;;;;;4993471;28;20054;-71
2022/05/15 10:27:17;;;;;;;135.30;123.95;;;20.00;70.60;;;;;;4992955;28;20061;-72
2022/05/15 10:29:52;;;;;;;134.20;122.65;;;20.10;70.80;;;;;;4989590;28;20129;-72
2022/05/15 10:32:25;;;;;;;133.30;122.30;;;20.20;70.10;;;;;;4990715;28;20061;-72
2022/05/15 10:34:53;;;;;;;134.55;123.25;;;20.20;69.30;;;;;;4993184;28;20541;-73
2022/05/15 10:37:47;;;;;;;133.18;122.20;;;20.30;68.30;;;;;;4992041;28;20089;-72
2022/05/15 10:40:23;;;;;;;132.38;121.28;;;20.50;67.60;;;;;;4995517;28;20482;-73
2022/05/15 10:42:59;;;;;;;132.95;121.85;;;20.50;67.70;;;;;;5008796;28;20054;-72
2022/05/15 10:45:35;;;;;;;132.05;121.25;;;20.60;67.80;;;;;;4997923;28;20078;-72
2022/05/15 10:48:22;;;;;;;131.98;121.38;;;20.60;67.70;;;;;;5010837;28;20062;-72
2022/05/15 10:50:56;;;;;;;131.10;120.43;;;20.70;67.70;;;;;;4986982;28;20125;-72
2022/05/15 10:59:43;;;;;;;134.63;122.97;;;21.00;66.00;;;;;;4989160;28;20054;-72
2022/05/15 11:02:36;;;;;;;139.15;127.82;;;21.10;66.00;;;;;;4978617;28;20524;-73
2022/05/15 11:05:09;;;;;;;130.98;119.97;;;21.20;64.70;;;;;;4978954;28;20050;-72
2022/05/15 11:07:41;;;;;;;134.45;123.68;;;21.30;65.00;;;;;;4995933;28;20090;-72
2022/05/15 11:10:14;;;;;;;139.20;125.60;;;21.30;64.30;;;;;;4995190;28;20082;-74
2022/05/15 11:15:57;;;;;;;137.43;126.32;;;21.50;64.60;;;;;;4974696;28;20141;-71
2022/05/15 11:18:51;;;;;;;143.45;131.68;;;21.60;63.20;;;;;;4992994;28;20051;-71
2022/05/15 11:21:26;;;;;;;137.65;126.60;;;21.70;64.10;;;;;;4973561;28;20461;-73
2022/05/15 11:23:58;;;;;;;139.87;128.73;;;21.70;63.00;;;;;;4977946;28;20058;-73
2022/05/15 11:26:31;;;;;;;145.02;133.68;;;21.80;62.90;;;;;;4976258;28;20259;-74
2022/05/15 11:29:04;;;;;;;142.70;131.40;;;21.90;61.20;;;;;;4994901;28;20143;-75
2022/05/15 11:31:33;;;;;;;216.73;132.13;;;22.00;61.00;;;;;;4995552;28;20133;-74
2022/05/15 11:34:04;;;;;;;139.65;128.00;;;22.00;60.50;;;;;;4995380;28;20491;-75
2022/05/15 11:36:35;;;;;;;137.40;126.47;;;22.10;59.80;;;;;;4977800;28;20074;-76
2022/05/15 11:39:08;;;;;;;142.18;130.52;;;22.20;59.00;;;;;;4993274;28;20054;-76
2022/05/15 11:42:10;;;;;;;140.70;129.85;;;22.20;59.10;;;;;;4975626;28;20055;-74
2022/05/15 11:44:41;;;;;;;142.85;131.75;;;22.30;58.70;;;;;;4975129;28;20084;-75
2022/05/15 11:47:25;;;;;;;143.20;131.60;;;22.40;58.60;;;;;;4992703;28;20082;-74
2022/05/15 11:50:09;;;;;;;143.90;132.65;;;22.40;59.50;;;;;;4937976;28;20047;-73
2022/05/15 11:52:40;;;;;;;142.38;131.23;;;22.50;59.30;;;;;;4988703;28;20059;-75
2022/05/15 11:55:37;;;;;;;143.90;132.73;;;22.60;59.10;;;;;;4976857;28;20058;-73
2022/05/15 11:58:34;;;;;;;143.82;132.60;;;22.70;58.60;;;;;;4969860;28;20050;-73
2022/05/15 12:01:19;;;;;;;143.77;132.98;;;22.80;57.10;;;;;;4983202;28;20060;-77
2022/05/15 12:03:53;;;;;;;144.20;132.65;;;22.80;55.90;;;;;;4975944;28;20047;-77
2022/05/15 12:06:23;;;;;;;143.90;132.77;;;22.90;56.30;;;;;;4957767;28;20051;-71
2022/05/15 12:08:53;;;;;;;144.65;133.55;;;23.00;54.40;;;;;;4967377;28;20042;-71
2022/05/15 12:11:33;;;;;;;145.95;134.82;;;23.10;54.70;;;;;;4967152;28;20134;-72
2022/05/15 12:14:32;;;;;;;147.80;136.20;;;23.10;54.80;;;;;;4967705;28;20050;-71
2022/05/15 12:17:04;;;;;;;143.48;132.45;;;23.20;56.10;;;;;;4987658;28;20073;-71
2022/05/15 12:19:33;;;;;;;148.50;136.82;;;23.30;55.50;;;;;;4971121;28;20190;-73
2022/05/15 12:22:03;;;;;;;146.98;136.00;;;23.30;54.50;;;;;;4975225;28;20818;-73
2022/05/15 12:24:33;;;;;;;146.57;135.35;;;23.40;54.60;;;;;;4985288;28;20059;-74
2022/05/15 12:27:23;;;;;;;148.48;137.43;;;23.50;53.50;;;;;;4981254;28;20051;-72
2022/05/15 12:30:04;;;;;;;148.38;137.02;;;23.50;53.50;;;;;;4974691;28;20061;-73
2022/05/15 12:32:37;;;;;;;147.60;136.30;;;23.60;53.20;;;;;;4981327;28;20138;-74
2022/05/15 12:35:07;;;;;;;144.13;133.33;;;23.60;52.70;;;;;;4991288;28;20081;-74
2022/05/15 12:37:48;;;;;;;146.38;135.35;;;23.70;52.90;;;;;;4991481;28;20551;-74
2022/05/15 12:40:16;;;;;;;144.90;134.30;;;23.80;53.20;;;;;;4971368;28;20050;-74
2022/05/15 12:42:43;;;;;;;145.18;134.52;;;23.80;52.40;;;;;;4986241;28;20129;-73
2022/05/15 12:45:13;;;;;;;146.50;135.77;;;23.90;52.90;;;;;;4992887;28;20134;-75
2022/05/15 12:47:43;;;;;;;150.07;139.18;;;24.00;52.30;;;;;;4973705;28;20042;-74
2022/05/15 12:50:17;;;;;;;148.18;137.65;;;24.00;51.30;;;;;;4993114;28;20497;-74
2022/05/15 12:52:44;;;;;;;;;;;24.10;50.70;;;;;;4993116;28;20138;-73
2022/05/15 12:55:26;;;;;;;148.25;137.57;;;24.20;50.80;;;;;;4975364;28;19969;-77